Time;durP1;ratioP1;P1;durP2;ratioP2;P2;SDS_P1;SDS_P2;PMS_P1;PMS_P2;Temp;Humidity;BMP_temperature;BMP_pressure;BME280_temperature;BME280_humidity;BME280_pressure;Samples;Min_cycle;Max_cycle;Signal;HPM_P1;HPM_P2
2023/04/20 00:01:16;;;;;;;10.68;6.70;;;5.30;99.90;;;;;;5047501;28;20029;-83
2023/04/20 00:03:42;;;;;;;10.65;6.65;;;5.30;99.90;;;;;;5042692;28;20116;-84
2023/04/20 00:06:08;;;;;;;8.38;5.65;;;5.30;99.90;;;;;;5045586;28;20428;-83
2023/04/20 00:08:33;;;;;;;13.32;6.10;;;5.30;99.90;;;;;;5045562;28;20112;-85
2023/04/20 00:10:59;;;;;;;7.30;6.25;;;5.20;99.90;;;;;;5049375;28;20488;-84
2023/04/20 00:13:25;;;;;;;8.55;6.38;;;5.20;99.90;;;;;;5047380;28;20056;-83
2023/04/20 00:15:51;;;;;;;9.52;6.70;;;5.20;99.90;;;;;;5050367;28;20063;-83
2023/04/20 00:18:16;;;;;;;8.45;6.57;;;5.20;99.90;;;;;;5045470;28;20288;-84
2023/04/20 00:20:42;;;;;;;10.27;6.78;;;5.20;99.90;;;;;;5049201;28;20047;-84
2023/04/20 00:23:08;;;;;;;12.52;7.10;;;5.20;99.90;;;;;;5050465;28;20485;-83
2023/04/20 00:25:35;;;;;;;8.25;6.28;;;5.20;99.90;;;;;;5048947;28;20025;-85
2023/04/20 00:28:00;;;;;;;8.57;6.22;;;5.20;99.90;;;;;;5040212;28;20029;-84
2023/04/20 00:30:26;;;;;;;12.57;8.80;;;5.20;99.90;;;;;;5046943;28;20021;-84
2023/04/20 00:32:52;;;;;;;8.15;6.07;;;5.20;99.90;;;;;;5045691;28;20108;-83
2023/04/20 00:35:17;;;;;;;8.02;6.72;;;5.10;99.90;;;;;;5047125;28;20032;-84
2023/04/20 00:37:43;;;;;;;7.38;6.10;;;5.20;99.90;;;;;;5044638;28;20049;-84
2023/04/20 00:40:09;;;;;;;8.70;6.68;;;5.10;99.90;;;;;;5045590;28;20504;-84
2023/04/20 00:42:34;;;;;;;9.23;6.95;;;5.10;99.90;;;;;;5054187;28;20461;-84
2023/04/20 00:45:00;;;;;;;10.50;7.50;;;5.10;99.90;;;;;;5040008;28;20039;-84
2023/04/20 00:47:26;;;;;;;11.18;8.18;;;5.10;99.90;;;;;;5051457;28;20047;-84
2023/04/20 00:49:53;;;;;;;10.23;7.18;;;5.10;99.90;;;;;;5049326;28;20504;-85
2023/04/20 00:52:20;;;;;;;11.02;8.10;;;5.10;99.90;;;;;;5050112;28;20043;-85
2023/04/20 00:54:45;;;;;;;11.15;8.20;;;5.10;99.90;;;;;;5049521;28;20047;-84
2023/04/20 00:57:12;;;;;;;10.95;7.90;;;5.10;99.90;;;;;;5049634;28;20053;-84
2023/04/20 00:59:41;;;;;;;12.73;8.80;;;5.10;99.90;;;;;;5044239;28;20044;-85
2023/04/20 01:02:07;;;;;;;11.55;8.32;;;5.10;99.90;;;;;;5051005;28;20701;-85
2023/04/20 01:04:35;;;;;;;10.82;7.72;;;5.10;99.90;;;;;;5050069;28;20045;-84
2023/04/20 01:07:01;;;;;;;10.52;7.90;;;5.10;99.90;;;;;;5058233;28;20056;-84
2023/04/20 01:09:27;;;;;;;11.43;8.70;;;5.10;99.90;;;;;;5041400;28;20029;-84
2023/04/20 01:11:52;;;;;;;11.88;8.32;;;5.10;99.90;;;;;;5053431;28;20032;-85
2023/04/20 01:14:18;;;;;;;13.57;9.20;;;5.10;99.90;;;;;;5046667;28;20039;-85
2023/04/20 01:16:45;;;;;;;10.23;8.23;;;5.10;99.90;;;;;;5048349;28;20036;-84
2023/04/20 01:19:11;;;;;;;10.80;7.38;;;5.10;99.90;;;;;;5047841;28;20037;-84
2023/04/20 01:21:37;;;;;;;10.75;7.65;;;5.10;99.90;;;;;;5052637;28;20052;-84
2023/04/20 01:24:03;;;;;;;8.25;6.85;;;5.10;99.90;;;;;;5043466;28;20059;-85
2023/04/20 01:26:28;;;;;;;10.27;7.72;;;5.10;99.90;;;;;;5046029;28;20033;-84
2023/04/20 01:28:54;;;;;;;12.00;8.13;;;5.20;99.90;;;;;;5048044;28;20029;-84
2023/04/20 01:31:20;;;;;;;10.25;7.75;;;5.20;99.90;;;;;;5053019;28;20415;-84
2023/04/20 01:33:45;;;;;;;11.90;7.05;;;5.20;99.90;;;;;;5055249;28;20047;-84
2023/04/20 01:36:11;;;;;;;7.68;5.97;;;5.20;99.90;;;;;;5052492;28;20389;-84
2023/04/20 01:38:37;;;;;;;9.82;7.32;;;5.10;99.90;;;;;;5051207;28;20405;-85
2023/04/20 01:41:05;;;;;;;9.30;6.65;;;5.10;99.90;;;;;;5041780;28;20532;-84
2023/04/20 01:43:31;;;;;;;8.10;6.93;;;5.20;99.90;;;;;;5046474;28;20029;-84
2023/04/20 01:45:58;;;;;;;7.85;6.03;;;5.20;99.90;;;;;;5050617;28;20024;-84
2023/04/20 01:48:24;;;;;;;5.90;5.25;;;5.20;99.90;;;;;;5050599;28;20111;-83
2023/04/20 01:50:52;;;;;;;9.10;6.03;;;5.10;99.90;;;;;;5047241;28;20120;-85
2023/04/20 01:53:20;;;;;;;8.27;5.57;;;5.10;99.90;;;;;;5056375;28;21128;-84
2023/04/20 01:55:46;;;;;;;7.97;5.70;;;5.10;99.90;;;;;;5048394;28;20031;-84
2023/04/20 01:58:12;;;;;;;8.23;5.95;;;5.10;99.90;;;;;;5046498;28;20049;-84
2023/04/20 02:00:38;;;;;;;7.15;5.60;;;5.10;99.90;;;;;;5059158;28;20090;-84
2023/04/20 02:03:03;;;;;;;6.40;5.50;;;5.10;99.90;;;;;;5051375;28;20033;-84
2023/04/20 02:05:29;;;;;;;8.73;5.75;;;5.10;99.90;;;;;;5049722;28;20022;-84
2023/04/20 02:07:55;;;;;;;10.93;6.05;;;5.10;99.90;;;;;;5047015;28;20036;-84
2023/04/20 02:10:20;;;;;;;6.70;5.82;;;5.10;99.90;;;;;;5049055;28;20069;-83
2023/04/20 02:12:48;;;;;;;7.03;5.78;;;5.10;99.90;;;;;;5046158;28;20037;-84
2023/04/20 02:15:14;;;;;;;7.82;5.57;;;5.10;99.90;;;;;;5049409;28;20024;-84
2023/04/20 02:17:41;;;;;;;6.57;5.22;;;5.10;99.90;;;;;;5046863;28;20029;-84
2023/04/20 02:20:08;;;;;;;5.78;5.22;;;5.10;99.90;;;;;;5041813;28;20029;-84
2023/04/20 02:22:34;;;;;;;6.00;5.00;;;5.10;99.90;;;;;;5049435;28;20020;-84
2023/04/20 02:25:00;;;;;;;7.40;5.30;;;5.00;99.90;;;;;;5052293;28;20036;-84
2023/04/20 02:27:27;;;;;;;5.90;4.93;;;5.10;99.90;;;;;;5045842;28;20389;-84
2023/04/20 02:29:53;;;;;;;7.20;5.43;;;5.00;99.90;;;;;;5050326;28;20028;-84
2023/04/20 02:32:18;;;;;;;7.03;5.70;;;5.00;99.90;;;;;;5049585;28;20035;-84
2023/04/20 02:34:45;;;;;;;6.07;5.13;;;5.00;99.90;;;;;;5047254;28;20345;-84
2023/04/20 02:37:10;;;;;;;6.82;5.20;;;5.10;99.90;;;;;;5055075;28;20044;-83
2023/04/20 02:39:36;;;;;;;5.50;4.95;;;5.10;99.90;;;;;;5044560;28;20036;-84
2023/04/20 02:42:01;;;;;;;5.82;4.80;;;5.10;99.90;;;;;;5047533;28;20035;-84
2023/04/20 02:44:27;;;;;;;7.03;4.95;;;5.10;99.90;;;;;;5051950;28;20413;-84
2023/04/20 02:46:53;;;;;;;8.15;4.53;;;5.10;99.90;;;;;;5043573;28;20032;-84
2023/04/20 02:49:19;;;;;;;5.95;4.43;;;5.10;99.90;;;;;;5047649;28;20297;-84
2023/04/20 02:51:44;;;;;;;7.47;5.13;;;5.00;99.90;;;;;;5059525;28;20037;-84
2023/04/20 02:54:10;;;;;;;6.22;5.00;;;5.10;99.90;;;;;;5047719;28;20416;-83
2023/04/20 02:56:35;;;;;;;6.68;5.13;;;5.10;99.90;;;;;;5049340;28;20031;-84
2023/04/20 02:59:01;;;;;;;6.07;4.55;;;5.00;99.90;;;;;;5048453;28;20075;-84
2023/04/20 03:01:27;;;;;;;6.63;4.50;;;5.00;99.90;;;;;;5044643;28;20091;-83
2023/04/20 03:03:52;;;;;;;5.00;4.28;;;5.00;99.90;;;;;;5053404;28;20163;-83
2023/04/20 03:06:18;;;;;;;6.45;4.75;;;5.00;99.90;;;;;;5042769;28;20025;-84
2023/04/20 03:08:43;;;;;;;7.75;4.97;;;5.00;99.90;;;;;;5045885;28;20421;-83
2023/04/20 03:11:09;;;;;;;4.45;4.05;;;5.00;99.90;;;;;;5049477;28;20478;-84
2023/04/20 03:13:35;;;;;;;9.38;4.80;;;5.00;99.90;;;;;;5045603;28;20446;-84
2023/04/20 03:16:00;;;;;;;6.47;5.25;;;5.00;99.90;;;;;;5046981;28;20550;-84
2023/04/20 03:18:26;;;;;;;6.00;4.88;;;5.00;99.90;;;;;;5050741;28;20045;-83
2023/04/20 03:20:52;;;;;;;5.68;4.43;;;5.00;99.90;;;;;;5047637;28;20076;-83
2023/04/20 03:23:18;;;;;;;4.88;4.13;;;5.00;99.90;;;;;;5042483;28;20033;-84
2023/04/20 03:25:45;;;;;;;7.97;5.00;;;5.00;99.90;;;;;;5045058;28;20040;-84
2023/04/20 03:28:11;;;;;;;7.32;4.22;;;5.00;99.90;;;;;;5044979;28;20036;-84
2023/04/20 03:30:36;;;;;;;4.35;3.95;;;5.00;99.90;;;;;;5041611;28;20022;-84
2023/04/20 03:33:02;;;;;;;9.48;4.88;;;5.00;99.90;;;;;;5058811;28;20051;-83
2023/04/20 03:35:27;;;;;;;5.78;4.20;;;5.00;99.90;;;;;;5035387;28;20276;-84
2023/04/20 03:37:53;;;;;;;4.68;3.90;;;5.00;99.90;;;;;;5046006;28;20110;-84
2023/04/20 03:40:19;;;;;;;7.20;4.75;;;5.00;99.90;;;;;;5044580;28;20035;-84
2023/04/20 03:42:44;;;;;;;5.60;4.80;;;5.00;99.90;;;;;;5040330;28;20040;-84
2023/04/20 03:45:10;;;;;;;5.00;4.20;;;5.10;99.90;;;;;;5035827;28;20039;-83
2023/04/20 03:47:36;;;;;;;5.53;4.13;;;5.10;99.90;;;;;;5040341;28;20044;-83
2023/04/20 03:50:02;;;;;;;5.80;4.97;;;5.10;99.90;;;;;;5042731;28;20485;-84
2023/04/20 03:52:27;;;;;;;5.45;4.53;;;5.10;99.90;;;;;;5049462;28;20087;-84
2023/04/20 03:54:53;;;;;;;7.10;5.13;;;5.10;99.90;;;;;;5047919;28;20030;-83
2023/04/20 03:57:18;;;;;;;6.20;4.28;;;5.10;99.90;;;;;;5048186;28;20116;-83
2023/04/20 03:59:47;;;;;;;6.28;4.57;;;5.00;99.90;;;;;;5047452;28;20041;-83
2023/04/20 04:02:12;;;;;;;9.25;5.55;;;5.00;99.90;;;;;;5052647;28;20024;-84
2023/04/20 04:04:39;;;;;;;14.10;5.63;;;5.10;99.90;;;;;;5050326;28;20032;-84
2023/04/20 04:07:06;;;;;;;7.35;4.70;;;5.10;99.90;;;;;;5044688;28;20029;-83
2023/04/20 04:09:31;;;;;;;8.95;5.03;;;5.10;99.90;;;;;;5050718;28;20025;-83
2023/04/20 04:11:57;;;;;;;9.02;4.93;;;5.10;99.90;;;;;;5046255;28;20493;-83
2023/04/20 04:14:23;;;;;;;10.48;6.10;;;5.10;99.90;;;;;;5053554;28;20021;-83
2023/04/20 04:16:48;;;;;;;6.88;4.85;;;5.10;99.90;;;;;;5046792;28;20033;-83
2023/04/20 04:19:14;;;;;;;6.20;5.10;;;5.10;99.90;;;;;;5055477;28;20042;-83
2023/04/20 04:21:40;;;;;;;7.13;5.03;;;5.10;99.90;;;;;;5047922;28;20135;-84
2023/04/20 04:24:09;;;;;;;9.10;5.18;;;5.00;99.90;;;;;;5034281;28;20482;-83
2023/04/20 04:26:35;;;;;;;5.25;4.45;;;5.00;99.90;;;;;;5041634;28;20033;-83
2023/04/20 04:29:00;;;;;;;7.22;5.03;;;5.00;99.90;;;;;;5056110;28;20040;-84
2023/04/20 04:31:26;;;;;;;8.57;4.88;;;5.00;99.90;;;;;;5045263;28;20056;-84
2023/04/20 04:33:52;;;;;;;14.07;6.22;;;5.00;99.90;;;;;;5041093;28;20116;-85
2023/04/20 04:36:17;;;;;;;10.02;5.55;;;5.00;99.90;;;;;;5029608;28;20130;-85
2023/04/20 04:38:43;;;;;;;14.15;5.45;;;4.90;99.90;;;;;;5050369;28;20135;-84
2023/04/20 04:41:13;;;;;;;9.25;5.45;;;4.90;99.90;;;;;;5035922;28;20040;-84
2023/04/20 04:43:39;;;;;;;14.38;6.53;;;4.90;99.90;;;;;;5036991;28;20500;-84
2023/04/20 04:46:09;;;;;;;8.05;5.47;;;4.90;99.90;;;;;;5045138;28;20028;-85
2023/04/20 04:48:36;;;;;;;7.82;5.40;;;4.90;99.90;;;;;;5047633;28;20032;-84
2023/04/20 04:51:02;;;;;;;12.10;6.28;;;4.90;99.90;;;;;;5035713;28;20039;-84
2023/04/20 04:53:28;;;;;;;8.60;6.13;;;4.90;99.90;;;;;;5045447;28;20053;-84
2023/04/20 04:55:53;;;;;;;9.75;6.28;;;4.90;99.90;;;;;;5042170;28;20086;-84
2023/04/20 04:58:19;;;;;;;12.02;6.15;;;4.90;99.90;;;;;;5032097;28;20029;-83
2023/04/20 05:00:44;;;;;;;7.80;5.95;;;5.00;99.90;;;;;;5048299;28;20037;-84
2023/04/20 05:03:10;;;;;;;13.02;6.68;;;5.00;99.90;;;;;;5037695;28;20549;-83
2023/04/20 05:05:36;;;;;;;9.43;6.65;;;5.00;99.90;;;;;;5037270;28;20016;-84
2023/04/20 05:08:01;;;;;;;12.90;6.65;;;5.00;99.90;;;;;;5044851;28;20037;-84
2023/04/20 05:10:27;;;;;;;9.55;7.22;;;5.00;99.90;;;;;;5052041;28;20036;-84
2023/04/20 05:12:52;;;;;;;9.70;6.88;;;5.00;99.90;;;;;;5061628;28;20378;-84
2023/04/20 05:15:18;;;;;;;11.93;6.72;;;5.00;99.90;;;;;;5058334;28;20029;-84
2023/04/20 05:17:44;;;;;;;11.88;7.10;;;5.00;99.90;;;;;;5062371;28;20021;-84
2023/04/20 05:20:10;;;;;;;11.55;7.25;;;5.00;99.90;;;;;;5068371;28;20047;-84
2023/04/20 05:22:36;;;;;;;14.10;7.97;;;5.00;99.90;;;;;;5055969;28;20024;-84
2023/04/20 05:25:05;;;;;;;11.25;7.25;;;5.00;99.90;;;;;;5064880;28;20276;-84
2023/04/20 05:27:32;;;;;;;13.73;7.38;;;5.00;99.90;;;;;;5058398;28;20279;-84
2023/04/20 05:29:57;;;;;;;15.45;8.82;;;5.00;99.90;;;;;;5055707;28;20033;-84
2023/04/20 05:32:23;;;;;;;12.95;8.02;;;5.00;99.90;;;;;;5058413;28;20032;-84
2023/04/20 05:34:48;;;;;;;15.80;7.50;;;5.00;99.90;;;;;;5063327;28;20037;-84
2023/04/20 05:37:15;;;;;;;12.48;8.30;;;5.00;99.90;;;;;;5050043;28;20462;-84
2023/04/20 05:39:41;;;;;;;17.75;10.63;;;5.00;99.90;;;;;;5067314;28;20401;-84
2023/04/20 05:42:06;;;;;;;19.13;10.25;;;5.00;99.90;;;;;;5058899;28;20039;-84
2023/04/20 05:44:32;;;;;;;17.70;11.35;;;5.00;99.90;;;;;;5057696;28;20474;-83
2023/04/20 05:46:58;;;;;;;35.60;19.00;;;5.00;99.90;;;;;;5058467;28;20024;-84
2023/04/20 05:49:24;;;;;;;30.30;17.88;;;5.10;99.90;;;;;;5056490;28;20500;-84
2023/04/20 05:51:50;;;;;;;31.52;17.48;;;5.10;99.90;;;;;;5061419;28;20367;-84
2023/04/20 05:54:16;;;;;;;29.73;16.98;;;5.00;99.90;;;;;;5057582;28;20410;-84
2023/04/20 05:56:41;;;;;;;33.42;18.50;;;5.00;99.90;;;;;;5060221;28;20021;-85
2023/04/20 05:59:08;;;;;;;35.58;20.23;;;5.00;99.90;;;;;;5056454;28;20111;-84
2023/04/20 06:01:33;;;;;;;33.75;20.00;;;5.00;99.90;;;;;;5054466;28;20082;-84
2023/04/20 06:03:59;;;;;;;36.13;20.48;;;5.00;99.90;;;;;;5048727;28;20025;-84
2023/04/20 06:06:25;;;;;;;39.90;23.13;;;5.10;99.90;;;;;;5048813;28;20461;-84
2023/04/20 06:08:51;;;;;;;29.20;18.88;;;5.10;99.90;;;;;;5058201;28;20172;-84
2023/04/20 06:11:16;;;;;;;39.03;20.33;;;5.10;99.90;;;;;;5062749;28;20115;-84
2023/04/20 06:13:42;;;;;;;36.05;20.92;;;5.10;99.90;;;;;;5056915;28;20512;-84
2023/04/20 06:16:09;;;;;;;40.83;21.20;;;5.20;99.90;;;;;;5058363;28;20025;-84
2023/04/20 06:18:36;;;;;;;40.35;23.00;;;5.20;99.90;;;;;;5061300;28;20032;-84
2023/04/20 06:21:02;;;;;;;36.08;20.92;;;5.30;99.90;;;;;;5058428;28;20040;-84
2023/04/20 06:23:28;;;;;;;35.20;20.77;;;5.40;99.90;;;;;;5055775;28;20039;-84
2023/04/20 06:25:54;;;;;;;36.95;22.15;;;5.40;99.90;;;;;;5054026;28;20115;-84
2023/04/20 06:28:20;;;;;;;41.65;21.63;;;5.40;99.90;;;;;;5058326;28;20116;-84
2023/04/20 06:30:45;;;;;;;35.95;22.15;;;5.40;99.90;;;;;;5050927;28;20092;-83
2023/04/20 06:33:16;;;;;;;37.95;24.17;;;5.50;99.90;;;;;;5062422;28;20576;-84
2023/04/20 06:35:42;;;;;;;37.45;23.73;;;5.50;99.90;;;;;;5063710;28;20027;-84
2023/04/20 06:38:08;;;;;;;37.05;23.42;;;5.60;99.90;;;;;;5054057;28;20045;-84
2023/04/20 06:40:33;;;;;;;39.30;24.30;;;5.60;99.90;;;;;;5047256;28;20032;-84
2023/04/20 06:43:02;;;;;;;35.90;22.40;;;5.60;99.90;;;;;;5061398;28;20361;-84
2023/04/20 06:45:28;;;;;;;36.30;23.55;;;5.60;99.90;;;;;;5067414;28;20401;-84
2023/04/20 06:47:53;;;;;;;40.83;23.83;;;5.60;99.90;;;;;;5067370;28;20029;-84
2023/04/20 06:50:19;;;;;;;39.97;22.92;;;5.60;99.90;;;;;;5064672;28;20032;-84
2023/04/20 06:52:47;;;;;;;34.22;22.40;;;5.50;99.90;;;;;;5057488;28;20029;-84
2023/04/20 06:55:13;;;;;;;36.83;22.10;;;5.60;99.90;;;;;;5050734;28;20159;-83
2023/04/20 06:57:42;;;;;;;35.25;21.58;;;5.50;99.90;;;;;;5053419;28;20033;-84
2023/04/20 07:00:09;;;;;;;29.27;18.08;;;5.50;99.90;;;;;;5059586;28;20029;-84
2023/04/20 07:03:01;;;;;;;28.20;18.05;;;5.50;99.90;;;;;;5060254;28;20056;-84
2023/04/20 07:05:27;;;;;;;32.03;18.48;;;5.50;99.90;;;;;;5045724;28;20036;-84
2023/04/20 07:07:53;;;;;;;23.88;17.55;;;5.50;99.90;;;;;;5060481;28;20028;-84
2023/04/20 07:10:19;;;;;;;25.35;17.15;;;5.50;99.90;;;;;;5047724;28;20021;-85
2023/04/20 07:12:45;;;;;;;28.45;19.02;;;5.50;99.90;;;;;;5055241;28;20047;-84
2023/04/20 07:15:12;;;;;;;22.52;16.17;;;5.50;99.90;;;;;;5053973;28;20043;-85
2023/04/20 07:17:37;;;;;;;27.35;17.55;;;5.50;99.90;;;;;;5046022;28;20041;-84
2023/04/20 07:20:07;;;;;;;25.58;16.98;;;5.50;99.90;;;;;;5058215;28;20503;-84
2023/04/20 07:22:35;;;;;;;22.73;15.63;;;5.50;99.90;;;;;;5056099;28;20492;-84
2023/04/20 07:25:02;;;;;;;20.63;15.52;;;5.60;99.90;;;;;;5050489;28;20064;-84
2023/04/20 07:27:28;;;;;;;18.23;14.63;;;5.60;99.90;;;;;;5056668;28;20374;-85
2023/04/20 07:29:55;;;;;;;19.40;14.00;;;5.60;99.90;;;;;;5049685;28;20029;-84
2023/04/20 07:32:21;;;;;;;19.08;12.65;;;5.60;99.90;;;;;;5046183;28;20449;-82
2023/04/20 07:34:47;;;;;;;17.67;11.90;;;5.60;99.90;;;;;;5051983;28;20049;-80
2023/04/20 07:37:12;;;;;;;14.60;11.25;;;5.70;99.90;;;;;;5054799;28;20063;-84
2023/04/20 07:39:38;;;;;;;13.65;11.40;;;5.70;99.90;;;;;;5065260;28;20036;-83
2023/04/20 07:42:04;;;;;;;16.70;12.15;;;5.70;99.90;;;;;;5058060;28;20032;-83
2023/04/20 07:44:29;;;;;;;14.43;11.70;;;5.70;99.90;;;;;;5056432;28;20493;-85
2023/04/20 07:46:56;;;;;;;14.13;10.77;;;5.70;99.90;;;;;;5044090;28;20964;-82
2023/04/20 07:49:22;;;;;;;15.02;11.48;;;5.70;99.90;;;;;;5033714;28;20021;-83
2023/04/20 07:51:48;;;;;;;13.82;11.07;;;5.70;99.90;;;;;;5034148;28;20037;-82
2023/04/20 07:54:13;;;;;;;13.73;9.60;;;5.80;99.90;;;;;;5040991;28;20037;-84
2023/04/20 07:56:39;;;;;;;11.85;10.00;;;5.80;99.90;;;;;;5042095;28;20036;-83
2023/04/20 07:59:05;;;;;;;12.68;10.00;;;5.80;99.90;;;;;;5045236;28;20064;-82
2023/04/20 08:01:34;;;;;;;15.07;9.73;;;5.80;99.90;;;;;;5046667;28;20029;-86
2023/04/20 08:04:00;;;;;;;12.60;9.55;;;5.80;99.90;;;;;;5038845;28;20031;-83
2023/04/20 08:06:26;;;;;;;16.15;9.75;;;5.80;99.90;;;;;;5044030;28;20024;-85
2023/04/20 08:08:52;;;;;;;14.05;9.57;;;5.80;99.90;;;;;;5042253;28;20491;-84
2023/04/20 08:11:17;;;;;;;14.15;9.25;;;5.80;99.90;;;;;;5040364;28;20087;-83
2023/04/20 08:13:43;;;;;;;11.55;9.40;;;5.80;99.90;;;;;;5042019;28;20076;-85
2023/04/20 08:16:09;;;;;;;10.15;8.48;;;5.80;99.90;;;;;;5037227;28;20040;-84
2023/04/20 08:18:34;;;;;;;13.98;9.13;;;5.80;99.90;;;;;;5050549;28;20890;-83
2023/04/20 08:21:00;;;;;;;12.15;9.40;;;5.80;99.90;;;;;;5045206;28;20053;-84
2023/04/20 08:23:29;;;;;;;9.30;7.80;;;5.80;99.90;;;;;;5039113;28;20055;-85
2023/04/20 08:25:55;;;;;;;10.57;8.45;;;5.80;99.90;;;;;;5035329;28;20044;-83
2023/04/20 08:28:22;;;;;;;12.10;9.23;;;5.80;99.90;;;;;;5045559;28;20028;-83
2023/04/20 08:30:48;;;;;;;11.88;9.02;;;5.90;99.90;;;;;;5051018;28;20032;-82
2023/04/20 08:33:13;;;;;;;15.05;10.65;;;5.90;99.90;;;;;;5038985;28;20054;-83
2023/04/20 08:35:39;;;;;;;12.05;9.73;;;5.90;99.90;;;;;;5041937;28;20021;-83
2023/04/20 08:38:05;;;;;;;12.65;9.55;;;5.90;99.90;;;;;;5062279;28;20041;-84
2023/04/20 08:40:31;;;;;;;12.30;8.63;;;5.90;99.90;;;;;;5054512;28;20028;-82
2023/04/20 08:42:58;;;;;;;11.93;9.05;;;6.00;99.90;;;;;;5050535;28;20025;-84
2023/04/20 08:45:24;;;;;;;13.95;9.80;;;6.00;99.90;;;;;;5051713;28;20032;-83
2023/04/20 08:47:51;;;;;;;10.48;8.82;;;6.00;99.90;;;;;;5038916;28;20257;-82
2023/04/20 08:50:21;;;;;;;11.85;8.70;;;6.00;99.90;;;;;;5042821;28;20029;-83
2023/04/20 08:52:46;;;;;;;14.02;9.40;;;6.00;99.90;;;;;;5037000;28;20033;-83
2023/04/20 08:55:16;;;;;;;10.65;8.77;;;6.00;99.90;;;;;;5043590;28;20494;-86
2023/04/20 08:57:42;;;;;;;10.77;8.50;;;6.00;99.90;;;;;;5053508;28;20389;-83
2023/04/20 09:00:13;;;;;;;12.98;8.68;;;6.00;99.90;;;;;;5062512;28;20034;-82
2023/04/20 09:02:53;;;;;;;16.58;11.90;;;6.00;99.90;;;;;;5050408;28;20068;-83
2023/04/20 09:05:26;;;;;;;12.05;9.85;;;6.10;99.90;;;;;;5045411;28;20104;-83
2023/04/20 09:08:09;;;;;;;16.27;10.93;;;6.10;99.90;;;;;;5037754;28;20512;-84
2023/04/20 09:10:43;;;;;;;18.50;12.73;;;6.10;99.90;;;;;;5043595;28;20467;-82
2023/04/20 09:13:22;;;;;;;20.40;12.88;;;6.10;99.90;;;;;;5045814;28;20032;-83
2023/04/20 09:15:47;;;;;;;17.25;11.98;;;6.10;99.90;;;;;;5047732;28;20029;-83
2023/04/20 09:18:14;;;;;;;13.27;10.15;;;6.10;99.90;;;;;;5047266;28;20025;-85
2023/04/20 09:20:40;;;;;;;15.10;10.55;;;6.20;99.90;;;;;;5053757;28;20096;-83
2023/04/20 09:23:14;;;;;;;13.95;10.80;;;6.20;99.90;;;;;;5053638;28;20485;-83
2023/04/20 09:25:42;;;;;;;20.10;10.48;;;6.20;99.90;;;;;;5044631;28;20073;-82
2023/04/20 09:28:08;;;;;;;12.18;9.18;;;6.20;99.90;;;;;;5043773;28;20493;-83
2023/04/20 09:30:42;;;;;;;13.98;10.48;;;6.30;99.90;;;;;;5055595;28;20076;-81
2023/04/20 09:33:09;;;;;;;11.20;9.18;;;6.30;99.90;;;;;;5055038;28;20130;-83
2023/04/20 09:35:37;;;;;;;9.88;8.13;;;6.40;99.90;;;;;;5048602;28;20028;-83
2023/04/20 09:38:03;;;;;;;10.15;8.48;;;6.40;99.90;;;;;;5059601;28;20402;-83
2023/04/20 09:40:29;;;;;;;11.10;8.63;;;6.40;99.90;;;;;;5046968;28;20385;-83
2023/04/20 09:42:59;;;;;;;9.48;7.70;;;6.40;99.90;;;;;;5050976;28;20264;-82
2023/04/20 09:45:28;;;;;;;9.60;6.78;;;6.40;99.90;;;;;;5033480;28;20032;-85
2023/04/20 09:47:54;;;;;;;8.50;7.13;;;6.40;99.90;;;;;;5034359;28;20464;-83
2023/04/20 09:50:20;;;;;;;8.38;6.80;;;6.50;99.90;;;;;;5041778;28;20061;-83
2023/04/20 09:52:49;;;;;;;8.25;6.00;;;6.50;99.90;;;;;;5048627;28;20060;-83
2023/04/20 09:55:17;;;;;;;8.15;5.95;;;6.50;99.90;;;;;;5050137;28;20032;-83
2023/04/20 09:57:44;;;;;;;7.35;5.97;;;6.60;99.90;;;;;;5050051;28;20029;-83
2023/04/20 10:00:11;;;;;;;7.85;6.70;;;6.60;99.90;;;;;;5055120;28;20024;-83
2023/04/20 10:02:37;;;;;;;8.15;6.63;;;6.60;99.90;;;;;;5056370;28;20401;-84
2023/04/20 10:05:04;;;;;;;11.68;7.22;;;6.70;99.90;;;;;;5052097;28;20032;-84
2023/04/20 10:07:31;;;;;;;10.02;7.65;;;6.70;99.90;;;;;;5046435;28;20033;-83
2023/04/20 10:10:12;;;;;;;11.93;8.05;;;6.70;99.90;;;;;;5045553;28;20112;-83
2023/04/20 10:12:54;;;;;;;10.32;8.10;;;6.70;99.90;;;;;;5053760;28;20131;-81
2023/04/20 10:15:34;;;;;;;19.00;8.13;;;6.70;99.90;;;;;;5047622;28;20017;-83
2023/04/20 10:18:00;;;;;;;10.68;8.40;;;6.70;99.90;;;;;;5042767;28;20032;-83
2023/04/20 10:20:29;;;;;;;13.98;8.82;;;6.70;99.90;;;;;;5043028;28;20036;-83
2023/04/20 10:23:14;;;;;;;9.68;7.55;;;6.70;99.90;;;;;;5048953;28;20025;-82
2023/04/20 10:25:41;;;;;;;9.77;7.68;;;6.80;99.90;;;;;;5042427;28;20503;-83
2023/04/20 10:28:10;;;;;;;13.63;8.70;;;6.90;99.90;;;;;;5042509;28;20033;-82
2023/04/20 10:30:48;;;;;;;11.15;8.35;;;7.00;99.90;;;;;;5048112;28;20047;-83
2023/04/20 10:33:14;;;;;;;10.98;8.18;;;7.10;99.90;;;;;;5043039;28;20466;-84
2023/04/20 10:35:45;;;;;;;10.85;8.50;;;7.10;99.90;;;;;;5060161;28;20051;-81
2023/04/20 10:38:11;;;;;;;10.70;8.45;;;7.10;99.90;;;;;;5056209;28;20451;-82
2023/04/20 10:40:39;;;;;;;12.02;9.05;;;7.10;99.90;;;;;;5051382;28;20024;-83
2023/04/20 10:43:18;;;;;;;14.07;9.95;;;7.10;99.90;;;;;;5049764;28;20025;-83
2023/04/20 10:45:43;;;;;;;12.98;10.02;;;7.10;99.90;;;;;;5046419;28;20027;-84
2023/04/20 10:48:09;;;;;;;13.38;10.15;;;7.10;99.90;;;;;;5045456;28;20417;-82
2023/04/20 10:50:35;;;;;;;11.38;9.63;;;7.10;99.90;;;;;;5053442;28;20024;-83
2023/04/20 10:53:03;;;;;;;14.68;10.43;;;7.10;99.90;;;;;;5054438;28;20161;-84
2023/04/20 10:55:29;;;;;;;12.10;10.15;;;7.10;99.90;;;;;;5048286;28;20029;-83
2023/04/20 10:57:55;;;;;;;15.05;10.85;;;7.10;99.90;;;;;;5048223;28;20036;-81
2023/04/20 11:00:23;;;;;;;13.52;9.57;;;7.20;99.90;;;;;;5033167;28;20078;-81
2023/04/20 11:02:51;;;;;;;14.45;10.27;;;7.20;99.90;;;;;;5050204;28;20057;-82
2023/04/20 11:05:18;;;;;;;12.23;9.45;;;7.30;99.90;;;;;;5036294;28;20027;-84
2023/04/20 11:08:02;;;;;;;11.40;8.68;;;7.40;99.90;;;;;;5053531;28;20116;-81
2023/04/20 11:10:39;;;;;;;26.05;12.10;;;7.50;99.90;;;;;;5043952;28;20477;-84
2023/04/20 11:13:06;;;;;;;14.38;8.73;;;7.60;99.90;;;;;;5037182;28;20057;-82
2023/04/20 11:15:32;;;;;;;11.20;9.02;;;7.50;99.90;;;;;;5047014;28;20029;-82
2023/04/20 11:18:09;;;;;;;10.77;8.50;;;7.50;99.90;;;;;;5050636;28;20111;-82
2023/04/20 11:20:52;;;;;;;13.25;9.35;;;7.50;99.90;;;;;;5050807;28;20025;-85
2023/04/20 11:23:20;;;;;;;15.50;9.07;;;7.60;99.90;;;;;;5037661;28;20029;-83
2023/04/20 11:25:54;;;;;;;16.60;9.90;;;7.60;99.90;;;;;;5032861;28;20051;-82
2023/04/20 11:28:20;;;;;;;15.48;10.40;;;7.60;99.90;;;;;;5042485;28;20048;-84
2023/04/20 11:30:46;;;;;;;13.55;10.18;;;7.70;99.90;;;;;;5042761;28;20526;-82
2023/04/20 11:33:12;;;;;;;16.27;10.32;;;7.70;99.90;;;;;;5041561;28;20526;-83
2023/04/20 11:35:40;;;;;;;18.38;10.68;;;7.70;99.90;;;;;;5047658;28;20391;-83
2023/04/20 11:38:06;;;;;;;12.32;10.00;;;7.70;99.90;;;;;;5061282;28;21958;-81
2023/04/20 11:40:32;;;;;;;15.05;11.25;;;7.80;99.90;;;;;;5039299;28;20106;-82
2023/04/20 11:42:58;;;;;;;16.27;9.93;;;7.80;99.90;;;;;;5049497;28;20048;-82
2023/04/20 11:45:24;;;;;;;13.00;10.40;;;7.70;99.90;;;;;;5051563;28;20469;-80
2023/04/20 11:47:51;;;;;;;17.48;11.35;;;7.70;99.90;;;;;;5047372;28;20114;-84
2023/04/20 11:50:17;;;;;;;15.38;11.77;;;7.70;99.90;;;;;;5042918;28;20032;-83
2023/04/20 11:52:43;;;;;;;15.10;10.45;;;7.70;99.90;;;;;;5047708;28;20020;-83
2023/04/20 11:55:10;;;;;;;15.45;11.30;;;7.70;99.90;;;;;;5052260;28;20572;-83
2023/04/20 11:57:36;;;;;;;14.85;11.25;;;7.70;99.90;;;;;;5033627;28;20028;-82
2023/04/20 12:00:03;;;;;;;21.13;12.10;;;7.70;99.90;;;;;;5041232;28;20033;-82
2023/04/20 12:02:28;;;;;;;16.65;12.48;;;7.70;99.90;;;;;;5046271;28;20058;-83
2023/04/20 12:04:54;;;;;;;17.88;12.57;;;7.60;99.90;;;;;;5047429;28;20033;-84
2023/04/20 12:07:23;;;;;;;17.35;12.15;;;7.60;99.90;;;;;;5052688;28;20115;-85
2023/04/20 12:09:48;;;;;;;15.98;11.55;;;7.60;99.90;;;;;;5044515;28;20032;-82
2023/04/20 12:12:14;;;;;;;17.92;11.65;;;7.60;99.90;;;;;;5052074;28;20056;-83
2023/04/20 12:14:40;;;;;;;16.45;12.63;;;7.60;99.90;;;;;;5049199;28;20024;-82
2023/04/20 12:17:05;;;;;;;17.92;13.02;;;7.60;99.90;;;;;;5050460;28;20052;-82
2023/04/20 12:19:31;;;;;;;20.08;13.40;;;7.60;99.90;;;;;;5049575;28;20065;-82
2023/04/20 12:21:57;;;;;;;21.65;14.10;;;7.60;99.90;;;;;;5048172;28;20468;-82
2023/04/20 12:24:22;;;;;;;24.25;14.65;;;7.60;99.90;;;;;;5046942;28;20075;-83
2023/04/20 12:26:48;;;;;;;27.70;15.50;;;7.60;99.90;;;;;;5046840;28;20082;-82
2023/04/20 12:29:15;;;;;;;23.67;16.35;;;7.60;99.90;;;;;;5040220;28;20027;-82
2023/04/20 12:31:41;;;;;;;22.98;15.73;;;7.70;99.90;;;;;;5058694;28;20017;-84
2023/04/20 12:34:07;;;;;;;24.77;15.32;;;7.70;99.90;;;;;;5040279;28;20028;-82
2023/04/20 12:36:33;;;;;;;21.27;15.30;;;7.80;99.90;;;;;;5051671;28;20040;-82
2023/04/20 12:39:00;;;;;;;19.20;13.85;;;7.80;99.90;;;;;;5042200;28;20108;-82
2023/04/20 12:41:26;;;;;;;28.38;14.88;;;7.80;99.90;;;;;;5034970;28;20033;-83
2023/04/20 12:43:52;;;;;;;22.00;15.10;;;7.90;99.90;;;;;;5047633;28;20390;-83
2023/04/20 12:46:20;;;;;;;20.45;14.63;;;7.90;99.90;;;;;;5044182;28;20505;-84